createdAt,value
2022-12-17T00:00:54.180Z,964.31
2022-12-17T00:01:54.024Z,964.31
2022-12-17T00:02:54.085Z,964.34
2022-12-17T00:03:54.093Z,964.33
2022-12-17T00:04:53.878Z,964.32
2022-12-17T00:05:53.825Z,964.39
2022-12-17T00:06:53.784Z,964.37
2022-12-17T00:07:53.722Z,964.41
2022-12-17T00:08:53.781Z,964.41
2022-12-17T00:09:53.630Z,964.41
2022-12-17T00:10:53.575Z,964.43
2022-12-17T00:11:53.527Z,964.43
2022-12-17T00:12:53.488Z,964.44
2022-12-17T00:13:53.423Z,964.51
2022-12-17T00:14:53.397Z,964.46
2022-12-17T00:15:53.360Z,964.47
2022-12-17T00:16:53.279Z,964.50
2022-12-17T00:17:53.225Z,964.54
2022-12-17T00:18:53.179Z,964.55
2022-12-17T00:19:53.129Z,964.57
2022-12-17T00:20:53.092Z,964.59
2022-12-17T00:21:53.033Z,964.58
2022-12-17T00:22:52.978Z,964.62
2022-12-17T00:23:52.926Z,964.64
2022-12-17T00:24:52.881Z,964.61
2022-12-17T00:25:52.829Z,964.68
2022-12-17T00:26:52.805Z,964.69
2022-12-17T00:27:52.731Z,964.71
2022-12-17T00:28:52.681Z,964.73
2022-12-17T00:29:52.632Z,964.71
2022-12-17T00:30:52.584Z,964.75
2022-12-17T00:31:52.560Z,964.73
2022-12-17T00:32:52.678Z,964.79
2022-12-17T00:33:52.431Z,964.77
2022-12-17T00:34:52.379Z,964.79
2022-12-17T00:35:52.330Z,964.81
2022-12-17T00:36:52.285Z,964.80
2022-12-17T00:37:52.230Z,964.81
2022-12-17T00:38:52.196Z,964.86
2022-12-17T00:39:57.630Z,964.85
2022-12-17T00:40:52.099Z,964.88
2022-12-17T00:41:52.029Z,964.89
2022-12-17T00:42:52.008Z,964.87
2022-12-17T00:43:51.978Z,964.87
2022-12-17T00:44:51.888Z,964.90
2022-12-17T00:45:51.834Z,964.86
2022-12-17T00:46:51.831Z,964.88
2022-12-17T00:47:51.734Z,964.89
2022-12-17T00:48:51.683Z,964.89
2022-12-17T00:49:51.643Z,964.87
2022-12-17T00:50:51.587Z,964.91
2022-12-17T00:51:51.535Z,964.92
2022-12-17T00:52:51.487Z,964.89
2022-12-17T00:53:51.437Z,964.92
2022-12-17T00:54:51.387Z,964.94
2022-12-17T00:55:51.345Z,964.92
2022-12-17T00:56:51.287Z,964.93
2022-12-17T00:57:51.239Z,964.97
2022-12-17T00:58:51.185Z,965.01
2022-12-17T00:59:51.133Z,965.01
2022-12-17T01:00:51.136Z,964.99
2022-12-17T01:01:51.179Z,965.00
2022-12-17T01:02:51.041Z,965.05
2022-12-17T01:03:50.933Z,965.04
2022-12-17T01:04:50.901Z,965.03
2022-12-17T01:05:50.833Z,965.04
2022-12-17T01:06:50.792Z,965.07
2022-12-17T01:07:50.740Z,965.07
2022-12-17T01:08:50.696Z,965.07
2022-12-17T01:09:50.651Z,965.06
2022-12-17T01:10:50.586Z,965.06
2022-12-17T01:11:50.537Z,965.08
2022-12-17T01:12:50.496Z,965.11
2022-12-17T01:13:50.437Z,965.12
2022-12-17T01:14:50.394Z,965.19
2022-12-17T01:15:50.504Z,965.17
2022-12-17T01:16:50.368Z,965.18
2022-12-17T01:17:50.238Z,965.20
2022-12-17T01:18:50.190Z,965.23
2022-12-17T01:19:50.138Z,965.23
2022-12-17T01:20:50.095Z,965.25
2022-12-17T01:21:50.049Z,965.24
2022-12-17T01:22:49.993Z,965.29
2022-12-17T01:23:49.942Z,965.26
2022-12-17T01:24:49.909Z,965.28
2022-12-17T01:25:49.840Z,965.34
2022-12-17T01:26:49.790Z,965.35
2022-12-17T01:27:49.743Z,965.33
2022-12-17T01:28:49.691Z,965.34
2022-12-17T01:29:49.644Z,965.36
2022-12-17T01:30:49.617Z,965.40
2022-12-17T01:31:49.573Z,965.35
2022-12-17T01:32:49.497Z,965.40
2022-12-17T01:33:49.440Z,965.40
2022-12-17T01:34:49.392Z,965.43
2022-12-17T01:35:49.340Z,965.44
2022-12-17T01:36:49.315Z,965.50
2022-12-17T01:37:49.240Z,965.46
2022-12-17T01:38:49.193Z,965.45
2022-12-17T01:39:49.141Z,965.45
2022-12-17T01:40:49.094Z,965.47
2022-12-17T01:41:49.049Z,965.45
2022-12-17T01:42:49.106Z,965.44
2022-12-17T01:43:48.941Z,965.46
2022-12-17T01:44:48.892Z,965.43
2022-12-17T01:45:48.863Z,965.44
2022-12-17T01:46:48.797Z,965.42
2022-12-17T01:47:48.741Z,965.42
2022-12-17T01:48:48.707Z,965.44
2022-12-17T01:49:48.643Z,965.44
2022-12-17T01:50:48.593Z,965.44
2022-12-17T01:51:48.545Z,965.47
2022-12-17T01:52:48.493Z,965.49
2022-12-17T01:53:48.441Z,965.49
2022-12-17T01:54:48.436Z,965.49
2022-12-17T01:55:48.343Z,965.48
2022-12-17T01:56:48.298Z,965.47
2022-12-17T01:57:48.248Z,965.50
2022-12-17T01:58:48.193Z,965.54
2022-12-17T01:59:48.145Z,965.50
2022-12-17T02:00:48.191Z,965.51
2022-12-17T02:01:48.197Z,965.47
2022-12-17T02:02:48.116Z,965.46
2022-12-17T02:03:47.943Z,965.50
2022-12-17T02:04:47.898Z,965.47
2022-12-17T02:05:47.845Z,965.52
2022-12-17T02:06:47.806Z,965.51
2022-12-17T02:07:47.783Z,965.48
2022-12-17T02:08:47.691Z,965.49
2022-12-17T02:09:47.643Z,965.51
2022-12-17T02:10:47.592Z,965.47
2022-12-17T02:11:47.541Z,965.49
2022-12-17T02:12:47.528Z,965.51
2022-12-17T02:13:47.438Z,965.52
2022-12-17T02:14:47.391Z,965.50
2022-12-17T02:15:47.342Z,965.51
2022-12-17T02:16:47.351Z,965.49
2022-12-17T02:17:47.246Z,965.49
2022-12-17T02:18:47.368Z,965.51
2022-12-17T02:19:47.140Z,965.50
2022-12-17T02:20:47.091Z,965.50
2022-12-17T02:21:47.043Z,965.48
2022-12-17T02:22:46.998Z,965.55
2022-12-17T02:23:46.943Z,965.51
2022-12-17T02:24:46.905Z,965.51
2022-12-17T02:25:46.841Z,965.48
2022-12-17T02:26:46.794Z,965.50
2022-12-17T02:27:46.749Z,965.50
2022-12-17T02:28:46.697Z,965.49
2022-12-17T02:29:46.643Z,965.50
2022-12-17T02:30:46.604Z,965.54
2022-12-17T02:31:46.600Z,965.54
2022-12-17T02:32:46.486Z,965.57
2022-12-17T02:33:46.439Z,965.57
2022-12-17T02:34:46.390Z,965.59
2022-12-17T02:35:46.343Z,965.62
2022-12-17T02:36:46.333Z,965.63
2022-12-17T02:37:46.248Z,965.67
2022-12-17T02:38:46.186Z,965.67
2022-12-17T02:39:46.134Z,965.66
2022-12-17T02:40:46.092Z,965.71
2022-12-17T02:41:46.037Z,965.73
2022-12-17T02:42:46.319Z,965.72
2022-12-17T02:43:45.940Z,965.74
2022-12-17T02:44:45.888Z,965.77
2022-12-17T02:45:45.895Z,965.77
2022-12-17T02:46:45.784Z,965.81
2022-12-17T02:47:45.736Z,965.83
2022-12-17T02:48:45.714Z,965.85
2022-12-17T02:49:45.640Z,965.81
2022-12-17T02:50:45.589Z,965.82
2022-12-17T02:51:45.540Z,965.82
2022-12-17T02:52:45.489Z,965.81
2022-12-17T02:53:45.435Z,965.82
2022-12-17T02:54:45.407Z,965.84
2022-12-17T02:55:45.335Z,965.81
2022-12-17T02:56:45.287Z,965.79
2022-12-17T02:57:48.506Z,965.85
2022-12-17T02:58:45.186Z,965.84
2022-12-17T02:59:45.134Z,965.82
2022-12-17T03:00:45.105Z,965.76
2022-12-17T03:01:45.220Z,965.78
2022-12-17T03:02:45.129Z,965.77
2022-12-17T03:03:49.952Z,965.79
2022-12-17T03:04:44.881Z,965.78
2022-12-17T03:05:45.809Z,965.78
2022-12-17T03:06:44.783Z,965.75
2022-12-17T03:07:44.736Z,965.81
2022-12-17T03:08:44.683Z,965.81
2022-12-17T03:09:44.639Z,965.83
2022-12-17T03:10:44.599Z,965.80
2022-12-17T03:11:44.531Z,965.81
2022-12-17T03:12:44.482Z,965.83
2022-12-17T03:13:44.433Z,965.79
2022-12-17T03:14:44.386Z,965.85
2022-12-17T03:15:44.333Z,965.83
2022-12-17T03:16:44.355Z,965.82
2022-12-17T03:17:44.230Z,965.82
2022-12-17T03:18:44.184Z,965.83
2022-12-17T03:19:44.133Z,965.83
2022-12-17T03:20:44.085Z,965.80
2022-12-17T03:21:44.034Z,965.80
2022-12-17T03:22:44.002Z,965.81
2022-12-17T03:23:43.931Z,965.86
2022-12-17T03:24:43.886Z,965.85
2022-12-17T03:25:43.833Z,965.82
2022-12-17T03:26:43.781Z,965.86
2022-12-17T03:27:43.728Z,965.86
2022-12-17T03:28:43.711Z,965.83
2022-12-17T03:29:43.635Z,965.83
2022-12-17T03:30:48.490Z,965.83
2022-12-17T03:31:43.602Z,965.84
2022-12-17T03:32:43.479Z,965.88
2022-12-17T03:33:43.432Z,965.86
2022-12-17T03:34:43.481Z,965.86
2022-12-17T03:35:43.333Z,965.87
2022-12-17T03:36:43.305Z,965.86
2022-12-17T03:37:43.232Z,965.91
2022-12-17T03:38:43.184Z,965.86
2022-12-17T03:39:43.134Z,965.83
2022-12-17T03:40:43.084Z,965.83
2022-12-17T03:41:43.056Z,965.85
2022-12-17T03:42:42.980Z,965.90
2022-12-17T03:43:42.950Z,965.90
2022-12-17T03:44:42.881Z,965.88
2022-12-17T03:45:42.889Z,965.84
2022-12-17T03:46:42.779Z,965.87
2022-12-17T03:47:42.733Z,965.84
2022-12-17T03:48:42.680Z,965.88
2022-12-17T03:49:42.646Z,965.90
2022-12-17T03:50:42.581Z,965.83
2022-12-17T03:51:42.994Z,965.87
2022-12-17T03:52:42.480Z,965.86
2022-12-17T03:53:42.473Z,965.90
2022-12-17T03:54:42.380Z,965.90
2022-12-17T03:55:42.331Z,965.87
2022-12-17T03:56:42.281Z,965.89
2022-12-17T03:57:42.245Z,965.93
2022-12-17T03:58:42.180Z,965.93
2022-12-17T03:59:42.128Z,965.95
2022-12-17T04:00:42.076Z,965.93
2022-12-17T04:01:42.071Z,965.95
2022-12-17T04:02:42.156Z,966.00
2022-12-17T04:03:41.991Z,965.97
2022-12-17T04:04:41.874Z,965.99
2022-12-17T04:05:41.829Z,965.99
2022-12-17T04:06:41.776Z,965.99
2022-12-17T04:07:41.726Z,966.00
2022-12-17T04:08:41.681Z,966.04
2022-12-17T04:09:41.643Z,966.03
2022-12-17T04:10:41.576Z,966.00
2022-12-17T04:11:41.530Z,965.98
2022-12-17T04:12:41.478Z,966.04
2022-12-17T04:13:41.648Z,966.00
2022-12-17T04:14:41.379Z,966.05
2022-12-17T04:15:41.404Z,966.04
2022-12-17T04:16:41.273Z,966.06
2022-12-17T04:17:41.228Z,966.08
2022-12-17T04:18:41.175Z,966.11
2022-12-17T04:19:41.124Z,966.11
2022-12-17T04:20:41.091Z,966.12
2022-12-17T04:21:41.027Z,966.14
2022-12-17T04:22:40.979Z,966.17
2022-12-17T04:23:40.923Z,966.15
2022-12-17T04:24:40.880Z,966.15
2022-12-17T04:25:40.826Z,966.15
2022-12-17T04:26:40.790Z,966.10
2022-12-17T04:27:40.726Z,966.10
2022-12-17T04:28:40.675Z,966.10
2022-12-17T04:29:40.621Z,966.10
2022-12-17T04:30:40.595Z,966.12
2022-12-17T04:31:40.525Z,966.11
2022-12-17T04:32:40.492Z,966.09
2022-12-17T04:33:40.423Z,966.09
2022-12-17T04:34:40.370Z,966.16
2022-12-17T04:35:43.069Z,966.18
2022-12-17T04:36:40.272Z,966.14
2022-12-17T04:37:40.225Z,966.16
2022-12-17T04:38:40.218Z,966.16
2022-12-17T04:39:40.126Z,966.19
2022-12-17T04:40:40.077Z,966.21
2022-12-17T04:41:40.023Z,966.28
2022-12-17T04:42:39.978Z,966.25
2022-12-17T04:43:39.930Z,966.24
2022-12-17T04:44:39.892Z,966.26
2022-12-17T04:45:39.826Z,966.25
2022-12-17T04:46:39.916Z,966.27
2022-12-17T04:47:39.729Z,966.27
2022-12-17T04:48:39.672Z,966.28
2022-12-17T04:49:39.624Z,966.30
2022-12-17T04:50:39.605Z,966.25
2022-12-17T04:51:39.522Z,966.29
2022-12-17T04:52:39.471Z,966.33
2022-12-17T04:53:39.510Z,966.27
2022-12-17T04:54:39.372Z,966.30
2022-12-17T04:55:39.322Z,966.28
2022-12-17T04:56:39.387Z,966.33
2022-12-17T04:57:39.226Z,966.34
2022-12-17T04:58:39.169Z,966.37
2022-12-17T04:59:39.123Z,966.34
2022-12-17T05:00:39.070Z,966.33
2022-12-17T05:01:39.142Z,966.40
2022-12-17T05:02:42.625Z,966.38
2022-12-17T05:03:39.286Z,966.41
2022-12-17T05:04:38.871Z,966.41
2022-12-17T05:05:38.820Z,966.41
2022-12-17T05:06:38.768Z,966.46
2022-12-17T05:07:38.718Z,966.46
2022-12-17T05:08:41.600Z,966.47
2022-12-17T05:09:38.618Z,966.45
2022-12-17T05:10:38.571Z,966.44
2022-12-17T05:11:38.514Z,966.47
2022-12-17T05:12:38.476Z,966.45
2022-12-17T05:13:38.660Z,966.45
2022-12-17T05:14:38.384Z,966.43
2022-12-17T05:15:38.355Z,966.43
2022-12-17T05:16:38.265Z,966.45
2022-12-17T05:17:38.219Z,966.44
2022-12-17T05:18:38.170Z,966.48
2022-12-17T05:19:38.113Z,966.55
2022-12-17T05:20:38.088Z,966.52
2022-12-17T05:21:38.013Z,966.52
2022-12-17T05:22:37.964Z,966.52
2022-12-17T05:23:38.203Z,966.58
2022-12-17T05:24:37.861Z,966.56
2022-12-17T05:25:37.809Z,966.56
2022-12-17T05:26:37.777Z,966.55
2022-12-17T05:27:37.712Z,966.53
2022-12-17T05:28:37.660Z,966.54
2022-12-17T05:29:37.610Z,966.59
2022-12-17T05:30:37.564Z,966.56
2022-12-17T05:31:37.567Z,966.56
2022-12-17T05:32:37.456Z,966.61
2022-12-17T05:33:37.705Z,966.61
2022-12-17T05:34:37.351Z,966.66
2022-12-17T05:35:37.307Z,966.64
2022-12-17T05:36:37.253Z,966.66
2022-12-17T05:37:37.228Z,966.65
2022-12-17T05:38:37.153Z,966.68
2022-12-17T05:39:37.106Z,966.67
2022-12-17T05:40:37.055Z,966.67
2022-12-17T05:41:36.999Z,966.66
2022-12-17T05:42:36.954Z,966.68
2022-12-17T05:43:37.322Z,966.65
2022-12-17T05:44:36.850Z,966.68
2022-12-17T05:45:36.796Z,966.67
2022-12-17T05:46:36.782Z,966.70
2022-12-17T05:47:36.696Z,966.67
2022-12-17T05:48:36.644Z,966.66
2022-12-17T05:49:36.618Z,966.64
2022-12-17T05:50:36.548Z,966.61
2022-12-17T05:51:38.893Z,966.66
2022-12-17T05:52:36.442Z,966.58
2022-12-17T05:53:36.639Z,966.64
2022-12-17T05:54:36.338Z,966.63
2022-12-17T05:55:36.314Z,966.67
2022-12-17T05:56:36.235Z,966.66
2022-12-17T05:57:36.189Z,966.68
2022-12-17T05:58:36.139Z,966.69
2022-12-17T05:59:36.092Z,966.74
2022-12-17T06:03:47.812Z,966.80
2022-12-17T06:04:47.267Z,966.78
2022-12-17T06:05:47.482Z,966.74
2022-12-17T06:06:47.162Z,966.79
2022-12-17T06:07:47.119Z,966.81
2022-12-17T06:08:47.059Z,966.79
2022-12-17T06:09:47.306Z,966.81
2022-12-17T06:10:46.954Z,966.82
2022-12-17T06:11:47.013Z,966.82
2022-12-17T06:12:46.852Z,966.83
2022-12-17T06:13:46.797Z,966.84
2022-12-17T06:14:46.750Z,966.81
2022-12-17T06:15:47.178Z,966.82
2022-12-17T06:16:46.644Z,966.82
2022-12-17T06:17:46.754Z,966.86
2022-12-17T06:18:46.537Z,966.87
2022-12-17T06:19:46.491Z,966.88
2022-12-17T06:20:46.436Z,966.91
2022-12-17T06:21:46.630Z,966.92
2022-12-17T06:22:46.335Z,966.96
2022-12-17T06:23:46.631Z,966.98
2022-12-17T06:24:46.416Z,966.95
2022-12-17T06:25:46.183Z,966.95
2022-12-17T06:26:46.411Z,966.93
2022-12-17T06:27:46.267Z,966.96
2022-12-17T06:28:46.217Z,966.96
2022-12-17T06:29:45.981Z,967.01
2022-12-17T06:30:46.025Z,967.00
2022-12-17T06:31:45.970Z,967.00
2022-12-17T06:32:46.052Z,967.02
2022-12-17T06:33:45.770Z,967.03
2022-12-17T06:34:45.859Z,967.04
2022-12-17T06:35:45.661Z,967.04
2022-12-17T06:36:45.616Z,967.04
2022-12-17T06:37:45.728Z,967.08
2022-12-17T06:38:45.675Z,967.05
2022-12-17T06:39:45.456Z,967.08
2022-12-17T06:40:45.688Z,967.07
2022-12-17T06:41:45.418Z,967.11
2022-12-17T06:42:45.301Z,967.11
2022-12-17T06:43:45.307Z,967.17
2022-12-17T06:44:45.201Z,967.13
2022-12-17T06:45:45.318Z,967.22
2022-12-17T06:46:45.163Z,967.21
2022-12-17T06:47:45.542Z,967.18
2022-12-17T06:48:45.140Z,967.17
2022-12-17T06:49:44.945Z,967.16
2022-12-17T06:50:45.158Z,967.19
2022-12-17T06:51:44.845Z,967.19
2022-12-17T06:52:44.869Z,967.20
2022-12-17T06:53:44.779Z,967.15
2022-12-17T06:54:44.688Z,967.18
2022-12-17T06:55:44.679Z,967.19
2022-12-17T06:56:44.587Z,967.20
2022-12-17T06:57:50.040Z,967.21
2022-12-17T06:58:44.484Z,967.21
2022-12-17T06:59:44.760Z,967.24
2022-12-17T07:00:44.444Z,967.29
2022-12-17T07:01:44.682Z,967.27
2022-12-17T07:02:44.422Z,967.31
2022-12-17T07:03:44.534Z,967.31
2022-12-17T07:04:44.221Z,967.34
2022-12-17T07:05:44.127Z,967.36
2022-12-17T07:06:44.075Z,967.35
2022-12-17T07:07:44.155Z,967.37
2022-12-17T07:08:43.968Z,967.41
2022-12-17T07:09:44.070Z,967.40
2022-12-17T07:10:44.124Z,967.38
2022-12-17T07:11:43.866Z,967.40
2022-12-17T07:12:43.882Z,967.41
2022-12-17T07:13:43.715Z,967.45
2022-12-17T07:14:45.338Z,967.47
2022-12-17T07:15:43.612Z,967.51
2022-12-17T07:16:43.614Z,967.50
2022-12-17T07:17:43.511Z,967.49
2022-12-17T07:18:43.723Z,967.50
2022-12-17T07:19:43.409Z,967.52
2022-12-17T07:20:43.526Z,967.54
2022-12-17T07:21:43.601Z,967.54
2022-12-17T07:22:43.248Z,967.55
2022-12-17T07:23:43.302Z,967.53
2022-12-17T07:24:43.353Z,967.52
2022-12-17T07:25:45.995Z,967.57
2022-12-17T07:26:43.167Z,967.59
2022-12-17T07:27:43.020Z,967.57
2022-12-17T07:28:42.946Z,967.61
2022-12-17T07:29:42.892Z,967.63
2022-12-17T07:30:42.994Z,967.62
2022-12-17T07:31:42.868Z,967.62
2022-12-17T07:32:43.212Z,967.64
2022-12-17T07:33:42.693Z,967.63
2022-12-17T07:34:42.636Z,967.66
2022-12-17T07:35:42.821Z,967.68
2022-12-17T07:36:42.616Z,967.72
2022-12-17T07:37:42.632Z,967.71
2022-12-17T07:38:42.510Z,967.69
2022-12-17T07:39:42.646Z,967.71
2022-12-17T07:40:42.339Z,967.67
2022-12-17T07:41:42.456Z,967.69
2022-12-17T07:42:42.517Z,967.77
2022-12-17T07:43:42.472Z,967.74
2022-12-17T07:44:42.132Z,967.75
2022-12-17T07:45:42.133Z,967.79
2022-12-17T07:46:42.280Z,967.79
2022-12-17T07:47:41.972Z,967.83
2022-12-17T07:48:42.101Z,967.89
2022-12-17T07:49:41.869Z,967.96
2022-12-17T07:50:42.112Z,967.98
2022-12-17T07:51:41.782Z,968.02
2022-12-17T07:52:41.923Z,968.05
2022-12-17T07:53:41.988Z,968.02
2022-12-17T07:54:41.937Z,968.06
2022-12-17T07:55:41.604Z,968.08
2022-12-17T07:56:41.508Z,968.04
2022-12-17T07:57:41.469Z,968.09
2022-12-17T07:58:41.552Z,968.14
2022-12-17T07:59:41.357Z,968.16
2022-12-17T08:00:46.043Z,968.22
2022-12-17T08:01:41.395Z,968.22
2022-12-17T08:02:41.348Z,968.25
2022-12-17T08:03:41.717Z,968.32
2022-12-17T08:04:41.294Z,968.27
2022-12-17T08:05:41.056Z,968.31
2022-12-17T08:06:41.104Z,968.32
2022-12-17T08:07:40.983Z,968.32
2022-12-17T08:08:41.115Z,968.35
2022-12-17T08:09:40.873Z,968.37
2022-12-17T08:10:40.924Z,968.34
2022-12-17T08:11:40.756Z,968.34
2022-12-17T08:12:42.781Z,968.38
2022-12-17T08:13:40.738Z,968.34
2022-12-17T08:14:40.597Z,968.40
2022-12-17T08:15:42.907Z,968.39
2022-12-17T08:16:40.560Z,968.41
2022-12-17T08:17:40.576Z,968.44
2022-12-17T08:18:40.396Z,968.45
2022-12-17T08:19:40.350Z,968.47
2022-12-17T08:20:40.384Z,968.48
2022-12-17T08:21:40.280Z,968.49
2022-12-17T08:22:40.403Z,968.49
2022-12-17T08:23:40.146Z,968.54
2022-12-17T08:24:40.094Z,968.52
2022-12-17T08:25:40.059Z,968.60
2022-12-17T08:26:44.306Z,968.64
2022-12-17T08:27:39.950Z,968.70
2022-12-17T08:28:50.565Z,968.70
2022-12-17T08:29:39.851Z,968.71
2022-12-17T08:30:39.861Z,968.73
2022-12-17T08:31:39.747Z,968.77
2022-12-17T08:32:39.856Z,968.78
2022-12-17T08:33:39.649Z,968.83
2022-12-17T08:34:39.836Z,968.82
2022-12-17T08:35:39.544Z,968.87
2022-12-17T08:36:39.503Z,968.88
2022-12-17T08:37:39.584Z,968.86
2022-12-17T08:38:39.641Z,968.90
2022-12-17T08:39:39.505Z,968.92
2022-12-17T08:40:39.298Z,968.95
2022-12-17T08:41:39.309Z,968.95
2022-12-17T08:42:39.197Z,968.92
2022-12-17T08:43:39.576Z,968.94
2022-12-17T08:44:39.107Z,969.01
2022-12-17T08:45:39.180Z,968.96
2022-12-17T08:46:39.008Z,968.98
2022-12-17T08:47:38.953Z,969.02
2022-12-17T08:48:38.911Z,969.01
2022-12-17T08:49:38.962Z,969.07
2022-12-17T08:50:39.021Z,969.07
2022-12-17T08:51:39.032Z,969.09
2022-12-17T08:52:38.701Z,969.12
2022-12-17T08:53:39.003Z,969.09
2022-12-17T08:54:38.602Z,969.12
2022-12-17T08:55:38.592Z,969.10
2022-12-17T08:56:38.532Z,969.13
2022-12-17T08:57:38.533Z,969.12
2022-12-17T08:58:38.405Z,969.11
2022-12-17T08:59:38.618Z,969.10
2022-12-17T09:00:38.309Z,969.08
2022-12-17T09:01:38.519Z,969.05
2022-12-17T09:02:38.395Z,969.07
2022-12-17T09:03:38.504Z,969.08
2022-12-17T09:04:38.245Z,969.08
2022-12-17T09:05:38.060Z,969.09
2022-12-17T09:06:39.398Z,969.05
2022-12-17T09:07:37.956Z,969.09
2022-12-17T09:08:38.071Z,969.09
2022-12-17T09:09:37.862Z,969.06
2022-12-17T09:10:37.813Z,969.14
2022-12-17T09:11:37.897Z,969.21
2022-12-17T09:12:37.719Z,969.25
2022-12-17T09:13:37.884Z,969.29
2022-12-17T09:14:37.761Z,969.28
2022-12-17T09:15:37.717Z,969.31
2022-12-17T09:16:37.573Z,969.24
2022-12-17T09:17:37.520Z,969.28
2022-12-17T09:18:37.429Z,969.27
2022-12-17T09:19:37.642Z,969.28
2022-12-17T09:20:37.350Z,969.28
2022-12-17T09:21:37.267Z,969.24
2022-12-17T09:22:37.352Z,969.21
2022-12-17T09:23:37.423Z,969.17
2022-12-17T09:24:37.169Z,969.22
2022-12-17T09:25:37.221Z,969.24
2022-12-17T09:26:37.089Z,969.24
2022-12-17T09:27:36.989Z,969.23
2022-12-17T09:28:37.000Z,969.25
2022-12-17T09:29:36.881Z,969.24
2022-12-17T09:30:36.945Z,969.22
2022-12-17T09:31:37.723Z,969.24
2022-12-17T09:32:36.742Z,969.26
2022-12-17T09:33:37.171Z,969.28
2022-12-17T09:34:36.736Z,969.31
2022-12-17T09:35:36.589Z,969.26
2022-12-17T09:36:36.640Z,969.26
2022-12-17T09:37:36.502Z,969.28
2022-12-17T09:38:36.473Z,969.31
2022-12-17T09:39:36.455Z,969.31
2022-12-17T09:40:36.351Z,969.33
2022-12-17T09:41:36.472Z,969.36
2022-12-17T09:42:36.317Z,969.34
2022-12-17T09:43:36.525Z,969.34
2022-12-17T09:44:36.148Z,969.32
2022-12-17T09:45:36.291Z,969.31
2022-12-17T09:46:36.318Z,969.31
2022-12-17T09:47:36.102Z,969.31
2022-12-17T09:48:36.031Z,969.31
2022-12-17T09:49:35.909Z,969.32
2022-12-17T09:50:35.855Z,969.33
2022-12-17T09:51:36.185Z,969.31
2022-12-17T09:52:35.771Z,969.28
2022-12-17T09:53:36.285Z,969.30
2022-12-17T09:54:35.671Z,969.31
2022-12-17T09:55:35.614Z,969.31
2022-12-17T09:56:35.652Z,969.36
2022-12-17T09:57:35.767Z,969.34
2022-12-17T09:58:35.485Z,969.34
2022-12-17T09:59:35.577Z,969.33
2022-12-17T10:00:35.383Z,969.36
2022-12-17T10:01:35.496Z,969.35
2022-12-17T10:02:35.678Z,969.33
2022-12-17T10:03:35.877Z,969.39
2022-12-17T10:04:35.412Z,969.34
2022-12-17T10:05:35.213Z,969.35
2022-12-17T10:06:35.215Z,969.32
2022-12-17T10:07:35.031Z,969.32
2022-12-17T10:08:35.080Z,969.39
2022-12-17T10:09:34.934Z,969.32
2022-12-17T10:10:35.049Z,969.35
2022-12-17T10:11:35.021Z,969.35
2022-12-17T10:12:34.911Z,969.33
2022-12-17T10:13:35.119Z,969.34
2022-12-17T10:14:34.881Z,969.36
2022-12-17T10:15:34.697Z,969.31
2022-12-17T10:16:34.782Z,969.28
2022-12-17T10:17:34.572Z,969.36
2022-12-17T10:18:34.507Z,969.32
2022-12-17T10:19:34.522Z,969.33
2022-12-17T10:20:34.513Z,969.31
2022-12-17T10:21:34.399Z,969.33
2022-12-17T10:22:36.893Z,969.29
2022-12-17T10:23:34.714Z,969.31
2022-12-17T10:24:34.214Z,969.31
2022-12-17T10:25:34.170Z,969.26
2022-12-17T10:26:34.156Z,969.26
2022-12-17T10:27:34.982Z,969.24
2022-12-17T10:28:35.077Z,969.26
2022-12-17T10:29:33.996Z,969.28
2022-12-17T10:30:33.931Z,969.24
2022-12-17T10:31:33.969Z,969.24
2022-12-17T10:32:33.981Z,969.22
2022-12-17T10:33:34.017Z,969.25
2022-12-17T10:34:33.789Z,969.25
2022-12-17T10:35:33.851Z,969.31
2022-12-17T10:36:33.644Z,969.32
2022-12-17T10:37:33.812Z,969.29
2022-12-17T10:38:33.543Z,969.28
2022-12-17T10:39:33.624Z,969.27
2022-12-17T10:40:33.488Z,969.27
2022-12-17T10:41:33.397Z,969.26
2022-12-17T10:42:34.705Z,969.30
2022-12-17T10:43:33.656Z,969.35
2022-12-17T10:44:33.271Z,969.32
2022-12-17T10:45:42.902Z,969.31
2022-12-17T10:46:33.213Z,969.27
2022-12-17T10:47:33.109Z,969.34
2022-12-17T10:48:33.063Z,969.35
2022-12-17T10:49:33.017Z,969.33
2022-12-17T10:50:32.967Z,969.30
2022-12-17T10:51:32.953Z,969.30
2022-12-17T10:52:32.872Z,969.29
2022-12-17T10:53:32.885Z,969.29
2022-12-17T10:54:32.776Z,969.32
2022-12-17T10:55:32.728Z,969.28
2022-12-17T10:56:32.677Z,969.33
2022-12-17T10:57:32.655Z,969.35
2022-12-17T10:58:32.605Z,969.37
2022-12-17T10:59:32.535Z,969.34
2022-12-17T11:00:32.525Z,969.34
2022-12-17T11:01:32.574Z,969.28
2022-12-17T11:02:32.602Z,969.32
2022-12-17T11:03:32.364Z,969.31
2022-12-17T11:04:32.293Z,969.30
2022-12-17T11:05:32.245Z,969.36
2022-12-17T11:06:32.907Z,969.34
2022-12-17T11:07:32.150Z,969.35
2022-12-17T11:08:32.128Z,969.38
2022-12-17T11:09:32.077Z,969.41
2022-12-17T11:10:32.006Z,969.39
2022-12-17T11:11:31.959Z,969.40
2022-12-17T11:12:31.936Z,969.42
2022-12-17T11:13:31.868Z,969.39
2022-12-17T11:14:31.814Z,969.44
2022-12-17T11:15:31.767Z,969.43
2022-12-17T11:16:31.786Z,969.42
2022-12-17T11:17:31.698Z,969.47
2022-12-17T11:18:31.621Z,969.46
2022-12-17T11:19:31.583Z,969.48
2022-12-17T11:20:31.532Z,969.50
2022-12-17T11:21:31.481Z,969.51
2022-12-17T11:22:31.432Z,969.49
2022-12-17T11:23:31.384Z,969.50
2022-12-17T11:24:31.335Z,969.51
2022-12-17T11:25:31.345Z,969.52
2022-12-17T11:26:31.236Z,969.53
2022-12-17T11:27:31.192Z,969.49
2022-12-17T11:28:31.145Z,969.49
2022-12-17T11:29:31.095Z,969.47
2022-12-17T11:30:31.234Z,969.45
2022-12-17T11:31:31.086Z,969.43
2022-12-17T11:32:30.950Z,969.38
2022-12-17T11:33:30.901Z,969.40
2022-12-17T11:34:30.857Z,969.38
2022-12-17T11:35:30.829Z,969.41
2022-12-17T11:36:36.801Z,969.47
2022-12-17T11:37:30.765Z,969.48
2022-12-17T11:38:30.667Z,969.48
2022-12-17T11:39:30.614Z,969.52
2022-12-17T11:40:30.570Z,969.50
2022-12-17T11:41:30.519Z,969.52
2022-12-17T11:42:30.467Z,969.54
2022-12-17T11:43:30.451Z,969.50
2022-12-17T11:44:30.371Z,969.51
2022-12-17T11:45:30.325Z,969.48
2022-12-17T11:46:30.328Z,969.46
2022-12-17T11:47:30.226Z,969.46
2022-12-17T11:48:30.179Z,969.47
2022-12-17T11:49:30.142Z,969.47
2022-12-17T11:50:30.088Z,969.41
2022-12-17T11:51:30.035Z,969.45
2022-12-17T11:52:29.988Z,969.39
2022-12-17T11:53:29.939Z,969.40
2022-12-17T11:54:29.890Z,969.43
2022-12-17T11:55:29.945Z,969.40
2022-12-17T11:56:29.800Z,969.34
2022-12-17T11:57:29.833Z,969.36
2022-12-17T11:58:29.700Z,969.36
2022-12-17T11:59:29.657Z,969.37
2022-12-17T12:00:29.602Z,969.42
2022-12-17T12:01:29.618Z,969.37
2022-12-17T12:02:29.564Z,969.39
2022-12-17T12:03:29.582Z,969.39
2022-12-17T12:04:29.413Z,969.39
2022-12-17T12:05:29.368Z,969.38
2022-12-17T12:06:29.316Z,969.39
2022-12-17T12:07:29.292Z,969.40
2022-12-17T12:08:29.226Z,969.38
2022-12-17T12:09:29.172Z,969.40
2022-12-17T12:10:29.126Z,969.36
2022-12-17T12:11:31.774Z,969.42
2022-12-17T12:12:29.030Z,969.40
2022-12-17T12:13:29.002Z,969.42
2022-12-17T12:14:28.932Z,969.40
2022-12-17T12:15:28.911Z,969.44
2022-12-17T12:16:28.847Z,969.46
2022-12-17T12:17:28.786Z,969.50
2022-12-17T12:18:28.746Z,969.48
2022-12-17T12:19:28.692Z,969.50
2022-12-17T12:20:28.668Z,969.49
2022-12-17T12:21:28.592Z,969.49
2022-12-17T12:22:30.763Z,969.45
2022-12-17T12:23:28.498Z,969.47
2022-12-17T12:24:28.451Z,969.43
2022-12-17T12:25:28.404Z,969.40
2022-12-17T12:26:28.377Z,969.41
2022-12-17T12:27:28.308Z,969.43
2022-12-17T12:28:28.258Z,969.45
2022-12-17T12:29:28.215Z,969.40
2022-12-17T12:30:28.160Z,969.43
2022-12-17T12:31:28.219Z,969.41